KCAR/CAR METAR and TAF weather

Enter ICAO airport designator
Station Type Date Time Source
KCAR METAR 2020/11/28 19:54 UTC NOAA

KCAR 281954Z AUTO 15003KT 6SM BR BKN004 OVC012 02/01 A2979 RMK AO2 RAE1859B21E51 SLP099 P0000 T00220006 $


Station Type Date Time Source
KCAR Decoded METAR 2020/11/28 19:54 UTC NOAA

CARIBOU MUNICIPAL AIRPORT, ME, United States (KCAR) 46-52N 68-01W 191M
Nov 28, 2020 - 02:54 PM EST / 2020.11.28 1954 UTC
Wind: from the SSE (150 degrees) at 3 MPH (3 KT):0
Visibility: 6 mile(s):0
Sky conditions: overcast
Weather: mist
Precipitation last hour: A trace
Temperature: 36.0 F (2.2 C)
Dew Point: 33.1 F (0.6 C)
Relative Humidity: 89%
Pressure (altimeter): 29.79 in. Hg (1008 hPa)
ob: KCAR 281954Z AUTO 15003KT 6SM BR BKN004 OVC012 02/01 A2979 RMK AO2 RAE1859B21E51 SLP099 P0000 T00220006
cycle: 20

Station Type Date Time Source
KCAR TAF 2020/11/28 20:06 UTC NOAA

TAF
AMD KCAR 282002Z 2820/2918 VRB03KT P6SM VCSH SCT004 OVC015
TEMPO 2820/2822 6SM BR BKN004
FM282200 VRB03KT P6SM VCSH OVC015
FM290600 VRB03KT P6SM SCT015 OVC025
FM290900 VRB03KT P6SM SCT025 BKN035

Example: see airport list